CST,Max TemperatureF,Mean TemperatureF,Min TemperatureF,Max Dew PointF,MeanDew PointF,Min DewpointF,Max Humidity, Mean Humidity, Min Humidity, Max Sea Level PressureIn, Mean Sea Level PressureIn, Min Sea Level PressureIn, Max VisibilityMiles, Mean VisibilityMiles, Min VisibilityMiles, Max Wind SpeedMPH, Mean Wind SpeedMPH, Max Gust SpeedMPH,PrecipitationIn, CloudCover, Events, WindDirDegrees
2012-11-1,66,49,32,39,32,19,100,63,20,30.08,30.01,29.98,10,9,4,8,1,,0.00,1,,274
2012-11-2,75,56,37,48,42,36,93,70,31,30.02,29.99,29.96,10,7,1,8,3,,0.00,0,,158
2012-11-3,82,62,41,61,49,41,100,69,32,30.07,30.01,29.93,10,10,2,21,4,30,0.02,1,Rain-Thunderstorm,245
2012-11-4,60,48,35,43,38,34,93,67,41,30.18,30.14,30.08,10,10,9,9,5,,0.00,0,Rain,344
2012-11-5,57,44,32,45,36,32,100,74,38,30.14,30.06,30.00,10,9,4,9,2,,0.01,4,Rain,15
2012-11-6,57,50,41,43,41,39,93,76,54,30.07,30.01,29.97,10,10,7,10,4,,0.00,7,,319
2012-11-7,53,42,32,41,38,32,100,81,54,30.18,30.05,29.97,10,8,0,17,5,23,0.00,5,Fog-Rain,307
2012-11-8,59,44,28,41,33,27,100,75,38,30.30,30.22,30.18,10,7,0,6,1,,0.00,2,Fog,156
2012-11-9,68,50,32,41,36,30,100,67,33,30.29,30.21,30.16,10,9,4,10,3,,0.00,0,,167
2012-11-10,71,54,37,48,42,36,93,63,33,30.29,30.21,30.15,10,10,10,17,7,21,0.00,0,,161
2012-11-11,73,62,50,57,48,41,94,61,41,30.21,30.13,30.06,10,10,2,22,12,32,0.03,3,Rain-Thunderstorm,162
2012-11-12,60,44,28,57,38,25,100,77,40,30.47,30.32,30.05,10,8,2,18,9,29,0.63,4,Rain,313
2012-11-13,53,40,26,32,25,21,100,63,28,30.52,30.44,30.39,10,10,10,13,3,17,0.00,0,Rain,15
2012-11-14,53,40,28,32,30,25,100,70,44,30.41,30.35,30.30,10,10,10,8,3,,0.00,1,,336
2012-11-15,59,44,28,36,31,27,100,69,36,30.36,30.31,30.26,10,10,6,9,2,,0.00,0,,342
2012-11-16,62,45,28,34,28,25,100,61,25,30.41,30.36,30.32,10,10,7,10,4,16,0.00,0,,350
2012-11-17,62,44,26,36,30,25,100,69,26,30.46,30.39,30.35,10,10,8,6,1,,0.00,0,,251
2012-11-18,64,46,28,36,30,27,93,66,26,30.42,30.36,30.31,10,10,7,8,1,,0.00,0,,134
2012-11-19,66,49,32,41,39,30,100,69,40,30.34,30.26,30.19,10,10,9,7,1,,0.00,0,,169
2012-11-20,69,55,41,46,43,39,93,72,37,30.21,30.15,30.08,10,10,10,9,2,,0.00,4,,223
2012-11-21,68,52,37,48,42,37,100,76,37,30.25,30.20,30.12,10,7,0,12,2,,0.00,0,Fog,347
2012-11-22,69,50,32,46,38,30,100,71,28,30.25,30.19,30.14,10,8,0,10,2,,0.00,1,Fog,184
2012-11-23,60,50,39,50,35,25,93,63,27,30.30,30.21,30.14,10,10,7,20,5,24,0.00,2,Rain,320
2012-11-24,46,36,26,28,22,16,86,61,31,30.37,30.27,30.18,10,10,10,10,5,,0.00,0,,330
2012-11-25,59,41,23,28,24,19,93,57,25,30.18,30.11,30.04,10,10,7,10,3,18,0.00,0,,174
2012-11-26,57,45,33,50,40,28,94,73,54,30.14,30.10,30.05,10,9,2,14,4,20,0.02,7,Rain,161
2012-11-27,48,36,24,45,35,25,100,86,70,30.38,30.29,30.15,10,8,1,17,9,24,0.03,6,Rain,1
2012-11-28,50,36,23,37,25,18,100,78,30,30.51,30.42,30.38,10,7,0,8,1,,0.00,3,Fog-Rain,64
2012-11-29,59,41,23,32,24,19,93,73,22,30.42,30.38,30.31,10,10,10,9,1,,0.02,0,,169
2012-11-30,57,47,37,39,37,36,93,79,51,30.24,30.23,30.21,10,10,8,5,4,,0.00,1,,159